Time;durP1;ratioP1;P1;durP2;ratioP2;P2;SDS_P1;SDS_P2;PMS_P1;PMS_P2;Temp;Humidity;BMP_temperature;BMP_pressure;BME280_temperature;BME280_humidity;BME280_pressure;Samples;Min_cycle;Max_cycle;Signal;HPM_P1;HPM_P2
2022/09/26 00:02:52;;;;;;;2.28;0.40;;;12.00;99.90;;;;;;6181036;23;20032;-92
2022/09/26 00:05:18;;;;;;;3.73;0.60;;;12.00;99.90;;;;;;6107840;23;20354;-93
2022/09/26 00:07:44;;;;;;;0.73;0.30;;;12.00;99.90;;;;;;6131461;23;20017;-90
2022/09/26 00:10:10;;;;;;;1.15;0.32;;;11.90;99.90;;;;;;6156107;23;20031;-92
2022/09/26 00:12:35;;;;;;;1.83;0.50;;;12.00;99.90;;;;;;6131585;23;20450;-91
2022/09/26 00:15:01;;;;;;;1.77;0.50;;;11.90;99.90;;;;;;6107172;23;20021;-93
2022/09/26 00:17:27;;;;;;;3.27;0.40;;;11.90;99.90;;;;;;6083558;23;20020;-91
2022/09/26 00:19:53;;;;;;;2.10;0.57;;;11.90;99.90;;;;;;6106811;23;20326;-92
2022/09/26 00:22:18;;;;;;;0.80;0.30;;;11.90;99.90;;;;;;6131570;23;20013;-88
2022/09/26 00:24:44;;;;;;;1.20;0.50;;;11.90;99.90;;;;;;6131283;23;20396;-91
2022/09/26 00:27:10;;;;;;;1.47;0.60;;;11.90;99.90;;;;;;6130996;23;20025;-93
2022/09/26 00:29:35;;;;;;;3.60;0.60;;;11.90;99.90;;;;;;6131313;23;20021;-90
2022/09/26 00:32:01;;;;;;;2.87;0.60;;;11.90;99.90;;;;;;6131494;23;20066;-92
2022/09/26 00:34:27;;;;;;;2.57;0.50;;;11.90;99.90;;;;;;6107465;23;20017;-92
2022/09/26 00:36:53;;;;;;;2.20;0.40;;;11.80;99.90;;;;;;6155761;23;20017;-93
2022/09/26 00:39:18;;;;;;;0.90;0.50;;;11.90;99.90;;;;;;6131313;23;20107;-92
2022/09/26 00:41:44;;;;;;;1.10;0.50;;;11.90;99.90;;;;;;6156116;23;20063;-89
2022/09/26 00:46:47;;;;;;;2.22;0.80;;;11.90;99.90;;;;;;6180269;23;20044;-88
2022/09/26 00:49:34;;;;;;;1.33;0.30;;;11.90;99.90;;;;;;6144085;23;20046;-88
2022/09/26 00:52:19;;;;;;;1.42;0.40;;;11.90;99.90;;;;;;6136827;23;20024;-88
2022/09/26 00:54:51;;;;;;;0.63;0.30;;;11.90;99.90;;;;;;6130415;23;20055;-88
2022/09/26 01:07:38;;;;;;;1.63;0.35;;;11.90;99.90;;;;;;6180198;23;20025;-87
2022/09/26 01:10:31;;;;;;;3.13;0.60;;;11.90;99.90;;;;;;6130642;23;20025;-87
2022/09/26 01:13:00;;;;;;;3.67;0.60;;;12.00;99.90;;;;;;6130255;23;20013;-89
2022/09/26 01:15:25;;;;;;;1.60;0.40;;;11.90;99.90;;;;;;6259806;22;20055;-87
2022/09/26 01:17:52;;;;;;;1.37;0.40;;;11.90;99.90;;;;;;6106701;23;20028;-88
2022/09/26 01:20:51;;;;;;;1.02;0.50;;;11.90;99.90;;;;;;6130304;23;20267;-88
2022/09/26 01:23:29;;;;;;;0.95;0.50;;;11.90;99.90;;;;;;6259044;22;20040;-87
2022/09/26 01:26:16;;;;;;;3.13;0.65;;;11.90;99.90;;;;;;6154778;23;20351;-86
2022/09/26 01:29:03;;;;;;;1.33;0.50;;;11.90;99.90;;;;;;6129963;23;20047;-87
2022/09/26 01:31:37;;;;;;;1.08;0.40;;;11.90;99.90;;;;;;6154497;23;20035;-87
2022/09/26 01:34:22;;;;;;;1.45;0.52;;;11.90;99.90;;;;;;6131427;23;20021;-86
2022/09/26 01:37:26;;;;;;;1.08;0.40;;;11.90;99.90;;;;;;6182324;23;20378;-90
2022/09/26 01:40:31;;;;;;;1.23;0.50;;;11.90;99.90;;;;;;6132382;23;20017;-88
2022/09/26 01:43:11;;;;;;;1.08;0.43;;;11.90;99.90;;;;;;6131391;23;20504;-87
2022/09/26 01:46:34;;;;;;;1.63;0.40;;;11.90;99.90;;;;;;6131632;23;20013;-87
2022/09/26 01:49:24;;;;;;;2.10;0.90;;;11.90;99.90;;;;;;6135064;23;20425;-85
2022/09/26 01:52:11;;;;;;;1.30;0.50;;;11.90;99.90;;;;;;6135041;23;20316;-88
2022/09/26 01:55:00;;;;;;;1.58;0.60;;;11.80;99.90;;;;;;6121550;23;20028;-87
2022/09/26 01:57:30;;;;;;;1.45;0.50;;;11.90;99.90;;;;;;6156043;23;20021;-86
2022/09/26 02:00:21;;;;;;;1.55;0.55;;;11.80;99.90;;;;;;6131918;23;20052;-88
2022/09/26 02:03:37;;;;;;;0.77;0.40;;;11.80;99.90;;;;;;6132072;23;20024;-87
2022/09/26 02:42:59;;;;;;;2.97;0.88;;;11.70;99.90;;;;;;6180536;23;20451;-91
2022/09/26 02:46:20;;;;;;;2.30;0.88;;;11.60;99.90;;;;;;6152558;23;20060;-90
2022/09/26 03:00:24;;;;;;;4.72;0.80;;;11.50;99.90;;;;;;6182005;23;20025;-89
2022/09/26 03:02:55;;;;;;;2.72;1.10;;;11.60;99.90;;;;;;6155994;23;20017;-90
2022/09/26 03:05:24;;;;;;;2.28;1.02;;;11.50;99.90;;;;;;6156000;23;20017;-89
2022/09/26 03:07:58;;;;;;;4.03;1.05;;;11.50;99.90;;;;;;6155607;23;20052;-88
2022/09/26 03:10:27;;;;;;;5.45;1.02;;;11.50;99.90;;;;;;6155829;23;20395;-88
2022/09/26 03:12:54;;;;;;;2.50;1.23;;;11.40;99.90;;;;;;6155854;23;20017;-88
2022/09/26 03:15:22;;;;;;;2.33;0.88;;;11.40;99.90;;;;;;6180526;23;20017;-88
2022/09/26 03:17:52;;;;;;;2.40;1.00;;;11.50;99.90;;;;;;6155924;23;20013;-90
2022/09/26 03:20:40;;;;;;;2.05;1.05;;;11.50;99.90;;;;;;6155910;23;20280;-86
2022/09/26 03:23:06;;;;;;;;;;;11.40;99.90;;;;;;6156002;23;20462;-87
2022/09/26 03:25:34;;;;;;;2.25;0.85;;;11.50;99.90;;;;;;6155324;23;19970;-90
2022/09/26 03:28:01;;;;;;;2.53;1.00;;;11.40;99.90;;;;;;6180482;23;20074;-88
2022/09/26 03:30:35;;;;;;;2.42;1.00;;;11.40;99.90;;;;;;6156105;23;20023;-87
2022/09/26 03:33:02;;;;;;;2.45;1.00;;;11.40;99.90;;;;;;6155694;23;20066;-87
2022/09/26 03:39:14;;;;;;;1.80;0.77;;;11.40;99.90;;;;;;6182330;23;20045;-87
2022/09/26 03:41:41;;;;;;;2.85;1.00;;;11.40;99.90;;;;;;6155154;23;20039;-88
2022/09/26 03:44:07;;;;;;;3.15;0.98;;;11.40;99.90;;;;;;6131220;23;20017;-87
2022/09/26 03:46:36;;;;;;;3.08;1.33;;;11.40;99.90;;;;;;6130879;23;20131;-88
2022/09/26 03:49:04;;;;;;;1.92;0.70;;;11.40;99.90;;;;;;6155771;23;20463;-87
2022/09/26 03:51:33;;;;;;;2.33;1.13;;;11.30;99.90;;;;;;6131280;23;20017;-87
2022/09/26 03:53:59;;;;;;;2.70;1.05;;;11.40;99.90;;;;;;6155266;23;20032;-89
2022/09/26 03:56:25;;;;;;;3.43;1.17;;;11.40;99.90;;;;;;6106246;23;20017;-87
2022/09/26 03:58:52;;;;;;;3.80;1.10;;;11.40;99.90;;;;;;6155614;23;20470;-90
2022/09/26 04:01:20;;;;;;;4.40;1.20;;;11.40;99.90;;;;;;6156424;23;20021;-90
2022/09/26 04:03:48;;;;;;;2.72;1.20;;;11.40;99.90;;;;;;6131852;23;20013;-90
2022/09/26 04:06:18;;;;;;;4.07;1.10;;;11.30;99.90;;;;;;6156400;23;20504;-90
2022/09/26 04:08:50;;;;;;;3.95;1.20;;;11.30;99.90;;;;;;6155890;23;20016;-90
2022/09/26 04:11:19;;;;;;;2.88;1.08;;;11.30;99.90;;;;;;6132363;23;20017;-91
2022/09/26 04:13:47;;;;;;;3.95;1.40;;;11.30;99.90;;;;;;6155600;23;20009;-91
2022/09/26 04:44:42;;;;;;;4.88;1.88;;;11.30;99.90;;;;;;6151592;23;20033;-89
2022/09/26 04:47:31;;;;;;;4.20;1.55;;;11.30;99.90;;;;;;6101036;23;20049;-89
2022/09/26 04:50:02;;;;;;;4.88;1.70;;;11.30;99.90;;;;;;6100933;23;20058;-89
2022/09/26 04:52:28;;;;;;;3.78;1.50;;;11.30;99.90;;;;;;6079565;23;20017;-89
2022/09/26 04:54:53;;;;;;;4.73;1.77;;;11.30;99.90;;;;;;6100927;23;20083;-89
2022/09/26 04:57:30;;;;;;;4.00;1.80;;;11.30;99.90;;;;;;6105245;23;20253;-87
2022/09/26 05:00:06;;;;;;;4.40;1.80;;;11.30;99.90;;;;;;6089637;23;20017;-89
2022/09/26 05:02:32;;;;;;;4.43;1.98;;;11.30;99.90;;;;;;6101752;23;20014;-88
2022/09/26 05:05:20;;;;;;;3.65;1.70;;;11.30;99.90;;;;;;6100862;23;20096;-88
2022/09/26 05:07:51;;;;;;;4.82;2.08;;;11.30;99.90;;;;;;6079774;23;20372;-91
2022/09/26 05:10:25;;;;;;;4.38;1.90;;;11.20;99.90;;;;;;6076564;23;20049;-87
2022/09/26 05:26:48;;;;;;;3.20;1.52;;;11.20;99.90;;;;;;6178728;23;20025;-87
2022/09/26 05:32:09;;;;;;;5.15;1.85;;;11.20;99.90;;;;;;6179310;23;21147;-90
2022/09/26 05:34:35;;;;;;;4.03;1.92;;;11.20;99.90;;;;;;6131397;23;20028;-91
2022/09/26 05:37:01;;;;;;;5.23;2.03;;;11.20;99.90;;;;;;6130850;23;20009;-88
2022/09/26 05:42:17;;;;;;;3.55;1.67;;;11.20;99.90;;;;;;6153758;23;20021;-91
2022/09/26 05:44:42;;;;;;;4.00;1.65;;;11.20;99.90;;;;;;6130691;23;20025;-89
2022/09/26 05:47:08;;;;;;;4.60;1.60;;;11.20;99.90;;;;;;6105618;23;20045;-89
2022/09/26 05:49:34;;;;;;;3.90;1.80;;;11.20;99.90;;;;;;6129813;23;20021;-88
2022/09/26 05:52:06;;;;;;;3.35;1.42;;;11.20;99.90;;;;;;6154381;23;20028;-87
2022/09/26 05:54:32;;;;;;;4.18;1.70;;;11.10;99.90;;;;;;6130163;23;20078;-88
2022/09/26 05:57:14;;;;;;;4.00;1.63;;;11.20;99.90;;;;;;6129941;23;20009;-89
2022/09/26 06:07:30;;;;;;;4.07;1.70;;;11.10;99.90;;;;;;6179225;23;20032;-89
2022/09/26 06:09:56;;;;;;;6.05;1.98;;;11.10;99.90;;;;;;6154750;23;20450;-88
2022/09/26 06:12:33;;;;;;;4.00;1.70;;;11.10;99.90;;;;;;6154385;23;20073;-89
2022/09/26 06:15:10;;;;;;;4.20;2.00;;;11.10;99.90;;;;;;6129263;23;20454;-92
2022/09/26 06:17:36;;;;;;;8.05;2.30;;;11.10;99.90;;;;;;6178778;22;20021;-88
2022/09/26 06:20:03;;;;;;;4.10;1.93;;;11.10;99.90;;;;;;6131527;23;20021;-89
2022/09/26 06:22:29;;;;;;;3.20;1.50;;;11.00;99.90;;;;;;6107065;23;20056;-88
2022/09/26 06:24:54;;;;;;;4.57;2.03;;;11.00;99.90;;;;;;6130569;23;20078;-87
2022/09/26 06:27:21;;;;;;;4.20;1.80;;;11.10;99.90;;;;;;6131174;23;20016;-88
2022/09/26 06:29:47;;;;;;;4.22;2.00;;;11.00;99.90;;;;;;6131397;23;20017;-87
2022/09/26 06:32:21;;;;;;;4.00;1.98;;;11.00;99.90;;;;;;6130101;23;20048;-87
2022/09/26 06:34:50;;;;;;;5.63;2.10;;;11.00;99.90;;;;;;6131172;23;20056;-87
2022/09/26 06:37:16;;;;;;;4.72;1.83;;;11.00;99.90;;;;;;6130593;23;20049;-88
2022/09/26 06:42:17;;;;;;;4.82;1.75;;;11.00;99.90;;;;;;6179809;23;20380;-89
2022/09/26 06:44:43;;;;;;;3.93;1.63;;;11.00;99.90;;;;;;6130840;23;20021;-87
2022/09/26 06:47:31;;;;;;;;;;;;;;;;;;;;;
2022/09/26 06:50:01;;;;;;;4.00;1.73;;;11.00;99.90;;;;;;6155223;22;20099;-89
2022/09/26 06:52:38;;;;;;;4.78;1.70;;;11.00;99.90;;;;;;6155449;23;20031;-88
2022/09/26 06:55:25;;;;;;;3.40;1.60;;;11.00;99.90;;;;;;6106839;23;20096;-89
2022/09/26 06:57:52;;;;;;;4.40;1.85;;;11.00;99.90;;;;;;6131956;23;20086;-89
2022/09/26 07:00:18;;;;;;;3.10;1.48;;;11.00;99.90;;;;;;6141976;23;20346;-87
2022/09/26 07:03:03;;;;;;;4.60;2.10;;;10.90;99.90;;;;;;6132245;23;20017;-90
2022/09/26 07:05:58;;;;;;;5.50;1.95;;;10.90;99.90;;;;;;6130982;23;20024;-90
2022/09/26 07:08:24;;;;;;;3.10;1.35;;;10.90;99.90;;;;;;6129444;23;20020;-94
2022/09/26 07:21:18;;;;;;;4.20;1.75;;;10.90;99.90;;;;;;6180448;23;20074;-90
2022/09/26 07:23:43;;;;;;;3.78;1.48;;;10.90;99.90;;;;;;6131136;23;20396;-93
2022/09/26 07:26:24;;;;;;;4.53;1.77;;;10.90;99.90;;;;;;6082714;23;20017;-90
2022/09/26 07:28:50;;;;;;;4.15;1.52;;;11.00;99.90;;;;;;6086671;23;20048;-88
2022/09/26 07:31:16;;;;;;;4.33;1.77;;;11.00;99.90;;;;;;6153793;23;20076;-89
2022/09/26 07:36:23;;;;;;;3.90;1.42;;;11.00;99.90;;;;;;6181597;23;20294;-90
2022/09/26 07:38:49;;;;;;;3.60;1.48;;;11.00;99.90;;;;;;6131147;23;20048;-90
2022/09/26 07:41:16;;;;;;;6.25;1.60;;;11.00;99.90;;;;;;6131024;23;20071;-89
2022/09/26 07:43:42;;;;;;;;;;;11.00;99.90;;;;;;6155816;23;20017;-88
2022/09/26 07:51:37;;;;;;;4.45;1.77;;;11.00;99.90;;;;;;6153611;23;20515;-90
2022/09/26 07:54:26;;;;;;;4.63;1.50;;;11.00;99.90;;;;;;6130614;23;20013;-94
2022/09/26 07:56:54;;;;;;;3.53;1.63;;;11.00;99.90;;;;;;6157827;23;20380;-89
2022/09/26 07:59:21;;;;;;;17.45;8.68;;;11.00;99.90;;;;;;6130602;23;20021;-93
2022/09/26 08:01:47;;;;;;;5.30;2.63;;;11.00;99.90;;;;;;6155828;23;20350;-88
2022/09/26 08:04:15;;;;;;;5.20;3.47;;;11.00;99.90;;;;;;6155515;23;20028;-88
2022/09/26 08:06:41;;;;;;;7.25;5.78;;;11.00;99.90;;;;;;6131055;23;20014;-89
2022/09/26 08:09:07;;;;;;;3.73;2.00;;;11.10;99.90;;;;;;6155114;23;20106;-91
2022/09/26 08:11:36;;;;;;;4.47;2.40;;;11.10;99.90;;;;;;6130612;23;20093;-92
2022/09/26 08:14:02;;;;;;;7.07;6.38;;;11.10;99.90;;;;;;6106263;23;20017;-88
2022/09/26 08:16:28;;;;;;;9.60;8.55;;;11.20;99.90;;;;;;6130842;23;20481;-88
2022/09/26 08:18:56;;;;;;;6.72;4.35;;;11.20;99.90;;;;;;6155197;23;20013;-88
2022/09/26 08:21:22;;;;;;;8.05;6.13;;;11.20;99.90;;;;;;6106873;23;20021;-88
2022/09/26 08:23:52;;;;;;;3.47;2.35;;;11.30;99.90;;;;;;6106934;23;20405;-92
2022/09/26 08:26:20;;;;;;;4.07;2.22;;;11.30;99.90;;;;;;6129296;23;20032;-89
2022/09/26 08:28:45;;;;;;;2.35;1.23;;;11.30;99.90;;;;;;6104461;23;20021;-89
2022/09/26 08:31:12;;;;;;;9.20;7.07;;;11.30;99.90;;;;;;6081542;23;20445;-88
2022/09/26 08:33:38;;;;;;;5.03;2.17;;;11.40;99.90;;;;;;6153888;23;20017;-90
2022/09/26 08:36:05;;;;;;;4.83;1.70;;;11.40;99.90;;;;;;6128565;23;20024;-88
2022/09/26 08:38:32;;;;;;;11.00;9.02;;;11.40;99.90;;;;;;6130508;23;20244;-89
2022/09/26 08:41:05;;;;;;;5.28;2.63;;;11.40;99.90;;;;;;6130560;23;20020;-89
2022/09/26 08:44:02;;;;;;;4.13;1.40;;;11.40;99.90;;;;;;6155103;23;20021;-90
2022/09/26 08:47:04;;;;;;;3.08;1.52;;;11.40;99.90;;;;;;6131585;23;20442;-90
2022/09/26 08:49:58;;;;;;;2.80;1.20;;;11.40;99.90;;;;;;6131138;23;20021;-90
2022/09/26 08:52:55;;;;;;;3.10;1.50;;;11.50;99.90;;;;;;6130881;23;20049;-92
2022/09/26 08:55:30;;;;;;;3.63;1.20;;;11.50;99.90;;;;;;6131293;23;20472;-91
2022/09/26 08:58:04;;;;;;;3.13;1.30;;;11.40;99.90;;;;;;6156671;23;20465;-89
2022/09/26 09:00:32;;;;;;;3.08;1.42;;;11.40;99.90;;;;;;6137500;23;20009;-89
2022/09/26 09:03:14;;;;;;;4.03;1.48;;;11.50;99.90;;;;;;6145426;23;20025;-90
2022/09/26 09:05:57;;;;;;;2.97;1.15;;;11.40;99.90;;;;;;6131010;23;20048;-91
2022/09/26 09:08:37;;;;;;;3.33;1.35;;;11.40;99.90;;;;;;6130858;23;20021;-89
2022/09/26 09:11:29;;;;;;;3.20;1.25;;;11.40;99.90;;;;;;6130631;23;20017;-89
2022/09/26 09:14:16;;;;;;;4.43;1.60;;;11.40;99.90;;;;;;6131126;23;20088;-92
2022/09/26 09:17:13;;;;;;;4.07;1.40;;;11.40;99.90;;;;;;6130544;23;20017;-90
2022/09/26 09:20:02;;;;;;;3.22;1.40;;;11.40;99.90;;;;;;6130472;23;20023;-90
2022/09/26 09:23:12;;;;;;;3.30;1.40;;;11.50;99.90;;;;;;6130775;23;20036;-89
2022/09/26 09:26:00;;;;;;;3.05;1.13;;;11.50;99.90;;;;;;6137450;23;20025;-91
2022/09/26 09:28:38;;;;;;;3.45;1.55;;;11.50;99.90;;;;;;6130252;23;20017;-90
2022/09/26 09:31:10;;;;;;;2.90;1.20;;;11.50;99.90;;;;;;6130783;23;20021;-89
2022/09/26 09:33:37;;;;;;;3.35;1.20;;;11.50;99.90;;;;;;6131147;23;20041;-90
2022/09/26 09:36:09;;;;;;;3.42;1.40;;;11.50;99.90;;;;;;6148863;23;20073;-89
2022/09/26 09:38:38;;;;;;;2.78;1.20;;;11.60;99.90;;;;;;6142936;23;20021;-91
2022/09/26 09:41:27;;;;;;;2.92;1.20;;;11.50;99.90;;;;;;6130623;23;20013;-91
2022/09/26 09:46:57;;;;;;;3.55;1.40;;;11.60;99.90;;;;;;6141496;23;20447;-90
2022/09/26 09:49:29;;;;;;;2.65;1.27;;;11.60;99.90;;;;;;6105928;23;20021;-91
2022/09/26 09:52:25;;;;;;;6.45;1.70;;;11.60;99.90;;;;;;6130527;23;20023;-95
2022/09/26 09:55:02;;;;;;;3.55;1.50;;;11.60;99.90;;;;;;6131250;23;20020;-91
2022/09/26 09:58:07;;;;;;;3.45;1.33;;;11.60;99.90;;;;;;6132029;23;20135;-91
2022/09/26 10:00:48;;;;;;;5.13;1.63;;;11.70;99.90;;;;;;6131938;23;20036;-89
2022/09/26 10:03:36;;;;;;;3.78;1.55;;;11.70;99.90;;;;;;6132096;23;20017;-90
2022/09/26 10:06:04;;;;;;;4.20;1.45;;;11.70;99.90;;;;;;6131881;23;20060;-90
2022/09/26 10:08:44;;;;;;;5.03;2.10;;;11.70;99.90;;;;;;6107300;23;20096;-90
2022/09/26 10:11:35;;;;;;;5.38;1.60;;;11.70;99.90;;;;;;6131051;23;20079;-91
2022/09/26 10:14:05;;;;;;;4.97;2.40;;;11.70;99.90;;;;;;6131798;23;20017;-89
2022/09/26 10:16:34;;;;;;;3.90;1.63;;;11.70;99.90;;;;;;6131846;23;20017;-89
2022/09/26 10:19:06;;;;;;;4.78;1.80;;;11.70;99.90;;;;;;6131187;23;20017;-90
2022/09/26 10:21:38;;;;;;;5.60;2.10;;;11.70;99.90;;;;;;6156153;23;20412;-92
2022/09/26 10:24:32;;;;;;;3.30;1.90;;;11.60;99.90;;;;;;6131572;23;20040;-91
2022/09/26 10:27:12;;;;;;;5.28;2.58;;;11.60;99.90;;;;;;6131099;23;20450;-90
2022/09/26 10:29:39;;;;;;;4.75;2.83;;;11.70;99.90;;;;;;6131773;23;20027;-91
2022/09/26 10:32:08;;;;;;;4.22;1.70;;;11.60;99.90;;;;;;6131572;23;20024;-92
2022/09/26 10:34:40;;;;;;;3.95;2.03;;;11.70;99.90;;;;;;6131635;23;20021;-91
2022/09/26 10:37:21;;;;;;;3.67;1.80;;;11.70;99.90;;;;;;6106586;23;20017;-92
2022/09/26 10:42:40;;;;;;;3.65;1.88;;;11.70;99.90;;;;;;6156082;23;20465;-93
2022/09/26 10:45:19;;;;;;;4.93;2.00;;;11.80;99.90;;;;;;6131559;23;20017;-94
2022/09/26 10:47:49;;;;;;;5.53;1.98;;;11.80;99.90;;;;;;6131723;23;20017;-90
2022/09/26 10:50:25;;;;;;;4.82;1.65;;;11.90;99.90;;;;;;6131401;23;20021;-91
2022/09/26 10:53:07;;;;;;;4.00;2.00;;;11.90;99.90;;;;;;6131945;23;20111;-92
2022/09/26 10:55:47;;;;;;;3.67;1.77;;;12.00;99.90;;;;;;6131612;23;20036;-89
2022/09/26 10:58:20;;;;;;;5.00;2.00;;;11.90;99.90;;;;;;6155903;23;20458;-89
2022/09/26 11:00:50;;;;;;;3.95;2.10;;;11.90;99.90;;;;;;6131785;23;20035;-90
2022/09/26 11:09:00;;;;;;;4.55;1.70;;;11.80;99.90;;;;;;6181076;23;20466;-89
2022/09/26 11:16:54;;;;;;;3.85;1.88;;;11.80;99.90;;;;;;6179866;23;20104;-91
2022/09/26 11:19:25;;;;;;;4.22;1.50;;;11.70;99.90;;;;;;6131191;23;20100;-90
2022/09/26 11:21:57;;;;;;;4.03;1.70;;;11.70;99.90;;;;;;6131350;23;20013;-89
2022/09/26 11:25:01;;;;;;;3.33;1.55;;;11.70;99.90;;;;;;6131185;23;20071;-88
2022/09/26 11:27:32;;;;;;;5.00;1.83;;;11.70;99.90;;;;;;6155814;23;20036;-88
2022/09/26 11:30:10;;;;;;;3.90;1.70;;;11.70;99.90;;;;;;6130723;23;20021;-88
2022/09/26 11:32:42;;;;;;;3.80;1.90;;;11.70;99.90;;;;;;6130704;23;20017;-88
2022/09/26 11:35:47;;;;;;;3.60;1.65;;;11.70;99.90;;;;;;6131022;23;20024;-89
2022/09/26 11:38:37;;;;;;;3.65;1.48;;;11.70;99.90;;;;;;6131005;23;20063;-88
2022/09/26 11:41:12;;;;;;;4.47;1.80;;;11.70;99.90;;;;;;6131358;23;20047;-89
2022/09/26 11:43:55;;;;;;;3.17;1.67;;;11.70;99.90;;;;;;6136265;23;20017;-89
2022/09/26 11:46:46;;;;;;;3.65;1.60;;;11.70;99.90;;;;;;6142182;23;20024;-89
2022/09/26 11:49:44;;;;;;;4.22;1.90;;;11.70;99.90;;;;;;6156844;23;20020;-88
2022/09/26 11:52:18;;;;;;;2.83;1.40;;;11.70;99.90;;;;;;6130939;23;20051;-90
2022/09/26 11:55:29;;;;;;;3.13;1.35;;;11.70;99.90;;;;;;6130955;23;20074;-89
2022/09/26 11:58:31;;;;;;;3.45;1.20;;;11.70;99.90;;;;;;6158335;23;20015;-89
2022/09/26 12:01:16;;;;;;;5.07;1.60;;;11.70;99.90;;;;;;6130954;23;20048;-91
2022/09/26 12:03:56;;;;;;;3.42;1.50;;;11.70;99.90;;;;;;6131294;23;20056;-90
2022/09/26 12:06:53;;;;;;;2.70;1.27;;;11.70;99.90;;;;;;6130995;23;20088;-92
2022/09/26 12:09:48;;;;;;;4.50;1.75;;;11.70;99.90;;;;;;6134524;23;20388;-90
2022/09/26 12:12:33;;;;;;;3.60;1.55;;;11.70;99.90;;;;;;6130951;23;20074;-92
2022/09/26 12:15:20;;;;;;;;;;;11.80;99.90;;;;;;6131013;23;20017;-91
2022/09/26 12:18:11;;;;;;;2.92;1.40;;;11.80;99.90;;;;;;6125780;23;19916;-92
2022/09/26 12:20:55;;;;;;;4.07;1.42;;;11.80;99.90;;;;;;6144362;23;20032;-88
2022/09/26 12:23:50;;;;;;;3.25;1.67;;;11.90;99.90;;;;;;6136827;23;20022;-90
2022/09/26 12:26:56;;;;;;;4.43;1.67;;;11.90;99.90;;;;;;6126119;23;20021;-88
2022/09/26 12:29:48;;;;;;;3.88;1.52;;;11.90;99.90;;;;;;6125223;23;20021;-89
2022/09/26 12:32:35;;;;;;;2.72;1.25;;;11.90;99.90;;;;;;6126162;23;20393;-89
2022/09/26 12:35:17;;;;;;;3.38;1.50;;;12.00;99.90;;;;;;6126522;23;20018;-91
2022/09/26 12:38:05;;;;;;;3.17;1.30;;;12.00;99.90;;;;;;6126320;23;20022;-92
2022/09/26 12:40:52;;;;;;;2.70;1.40;;;12.00;99.90;;;;;;6126232;23;20071;-91
2022/09/26 12:43:34;;;;;;;3.67;1.40;;;12.00;99.90;;;;;;6126317;23;20018;-89
2022/09/26 12:46:21;;;;;;;2.45;1.30;;;12.00;99.90;;;;;;6126407;23;20336;-93
2022/09/26 12:52:21;;;;;;;2.47;1.08;;;12.10;99.90;;;;;;6153689;23;20037;-91
2022/09/26 12:55:11;;;;;;;291.67;77.80;;;12.10;99.90;;;;;;6133494;23;20017;-93
2022/09/26 12:58:18;;;;;;;7.60;4.28;;;12.20;99.90;;;;;;6131209;23;20021;-92
2022/09/26 13:01:12;;;;;;;6.78;3.42;;;12.20;99.90;;;;;;6131072;23;20513;-93
2022/09/26 13:03:54;;;;;;;4.55;2.60;;;12.30;99.90;;;;;;6131071;23;20337;-92
2022/09/26 13:07:02;;;;;;;3.83;2.20;;;12.30;99.90;;;;;;6130867;23;20017;-90
2022/09/26 13:09:44;;;;;;;2.60;1.35;;;12.30;99.90;;;;;;6131237;23;20079;-91
2022/09/26 13:12:39;;;;;;;3.30;1.48;;;12.40;99.90;;;;;;6130743;23;20469;-91
2022/09/26 13:15:28;;;;;;;2.35;1.20;;;12.40;99.90;;;;;;6130892;23;20017;-93
2022/09/26 13:17:59;;;;;;;3.60;1.30;;;12.40;99.90;;;;;;6130763;23;20017;-91
2022/09/26 13:20:42;;;;;;;2.35;1.10;;;12.40;99.90;;;;;;6130685;23;20526;-91
2022/09/26 13:23:31;;;;;;;2.63;1.20;;;12.40;99.90;;;;;;6130865;23;20462;-93
2022/09/26 13:26:13;;;;;;;2.70;1.13;;;12.50;99.90;;;;;;6130934;23;20017;-90
2022/09/26 13:42:35;;;;;;;3.25;1.10;;;12.60;99.90;;;;;;6137105;23;20028;-91
2022/09/26 13:45:22;;;;;;;2.65;1.20;;;12.70;99.90;;;;;;6130123;23;20343;-93
2022/09/26 14:03:36;;;;;;;4.72;2.08;;;12.90;99.90;;;;;;6181005;23;20021;-91
2022/09/26 14:06:08;;;;;;;4.25;1.40;;;12.90;99.90;;;;;;6106894;23;20025;-90
2022/09/26 14:11:51;;;;;;;1.95;0.80;;;13.00;99.90;;;;;;6161391;23;20349;-92
2022/09/26 14:15:00;;;;;;;1.88;1.00;;;13.00;99.90;;;;;;6131693;23;20353;-91
2022/09/26 14:17:50;;;;;;;3.28;1.30;;;13.00;99.90;;;;;;6127661;23;20053;-92
2022/09/26 14:21:00;;;;;;;2.60;0.82;;;13.00;99.90;;;;;;6132087;23;20049;-92
2022/09/26 14:24:03;;;;;;;2.00;1.13;;;13.00;99.90;;;;;;6154796;23;20384;-92
2022/09/26 14:26:41;;;;;;;4.57;1.20;;;13.10;99.90;;;;;;6131787;23;20017;-91
2022/09/26 14:32:15;;;;;;;3.53;1.00;;;13.00;99.90;;;;;;6199172;22;20001;-87
2022/09/26 14:34:45;;;;;;;;;;;13.10;99.90;;;;;;6130364;23;20047;-89
2022/09/26 14:39:42;;;;;;;2.10;1.00;;;13.10;99.90;;;;;;6179026;23;20049;-92
2022/09/26 14:42:20;;;;;;;1.35;0.60;;;13.10;99.90;;;;;;6132357;23;20028;-92
2022/09/26 14:45:03;;;;;;;2.90;0.52;;;13.10;99.90;;;;;;6131780;23;20021;-92
2022/09/26 14:47:53;;;;;;;1.70;0.60;;;13.10;99.90;;;;;;6131717;23;20151;-91
2022/09/26 14:50:57;;;;;;;1.73;0.60;;;13.10;99.90;;;;;;6131549;23;20104;-91
2022/09/26 14:53:48;;;;;;;1.63;0.55;;;13.10;99.90;;;;;;6131230;23;20099;-91
2022/09/26 14:56:36;;;;;;;;;;;13.10;99.90;;;;;;6132572;23;20021;-91
2022/09/26 14:59:33;;;;;;;1.63;0.70;;;13.20;99.90;;;;;;6132110;23;19920;-91
2022/09/26 15:35:39;;;;;;;2.78;1.00;;;13.20;99.90;;;;;;6178216;23;20056;-90
2022/09/26 16:35:32;;;;;;;6.15;1.98;;;12.80;99.90;;;;;;6151076;23;20022;-90
2022/09/26 16:38:19;;;;;;;6.57;1.83;;;12.70;99.90;;;;;;6109258;23;20354;-88
2022/09/26 16:56:22;;;;;;;6.95;2.50;;;12.70;99.90;;;;;;6180229;23;20028;-90
2022/09/26 17:01:56;;;;;;;5.85;2.22;;;12.80;99.90;;;;;;6178192;23;20093;-89
2022/09/26 17:04:30;;;;;;;6.30;2.13;;;12.80;99.90;;;;;;6091461;23;20104;-88
2022/09/26 17:07:18;;;;;;;6.72;2.78;;;12.80;99.90;;;;;;6159121;23;20032;-90
2022/09/26 17:09:43;;;;;;;8.40;2.63;;;12.70;99.90;;;;;;6106284;23;20353;-92
2022/09/26 17:12:20;;;;;;;6.27;2.20;;;12.70;99.90;;;;;;6155488;23;20065;-89
2022/09/26 17:14:55;;;;;;;15.55;4.80;;;12.70;99.90;;;;;;6138937;23;20100;-88
2022/09/26 17:17:24;;;;;;;26.75;6.18;;;12.60;99.90;;;;;;6140491;23;20017;-90
2022/09/26 17:19:54;;;;;;;6.30;2.10;;;12.60;99.90;;;;;;6131433;23;20434;-89
2022/09/26 17:22:22;;;;;;;5.85;1.70;;;12.60;99.90;;;;;;6130626;23;20013;-89
2022/09/26 17:24:53;;;;;;;5.97;1.10;;;12.60;99.90;;;;;;6130273;23;20032;-89
2022/09/26 17:27:29;;;;;;;3.40;0.90;;;12.60;99.90;;;;;;6105297;23;20074;-89
2022/09/26 17:29:59;;;;;;;3.08;0.80;;;12.50;99.90;;;;;;6130434;23;20052;-89
2022/09/26 17:32:29;;;;;;;2.45;0.47;;;12.50;99.90;;;;;;6130717;23;20024;-89
2022/09/26 17:34:58;;;;;;;2.35;0.70;;;12.50;99.90;;;;;;6130304;23;20048;-88
2022/09/26 17:37:25;;;;;;;2.40;0.80;;;12.50;99.90;;;;;;6130020;23;20056;-89
2022/09/26 17:39:52;;;;;;;2.88;0.70;;;12.50;99.90;;;;;;6130243;23;20017;-90
2022/09/26 17:42:19;;;;;;;2.45;0.70;;;12.40;99.90;;;;;;6130482;23;20047;-88
2022/09/26 17:44:56;;;;;;;2.78;0.68;;;12.40;99.90;;;;;;6105657;23;20048;-90
2022/09/26 17:47:56;;;;;;;;;;;;;;;;;;;;;
2022/09/26 17:50:31;;;;;;;6.00;0.82;;;12.40;99.90;;;;;;6146256;23;20052;-90
2022/09/26 17:53:01;;;;;;;1.98;0.90;;;12.30;99.90;;;;;;6136583;23;20017;-90
2022/09/26 17:55:28;;;;;;;2.13;0.80;;;12.30;99.90;;;;;;6106105;23;20073;-90
2022/09/26 17:57:56;;;;;;;2.90;0.57;;;12.30;99.90;;;;;;6130272;23;20036;-94
2022/09/26 18:04:16;;;;;;;2.20;0.88;;;12.20;99.90;;;;;;6162368;23;20076;-90
2022/09/26 18:27:31;;;;;;;3.35;0.80;;;12.10;99.90;;;;;;6180715;23;20025;-90
2022/09/26 18:29:57;;;;;;;5.53;1.10;;;12.10;99.90;;;;;;6105392;23;20025;-87
2022/09/26 18:33:13;;;;;;;;;;;;;;;;;;;;;
2022/09/26 18:38:29;;;;;;;2.90;0.70;;;12.10;99.90;;;;;;6177561;23;20036;-88
2022/09/26 18:54:33;;;;;;;1.70;0.40;;;12.00;99.90;;;;;;6165953;23;20446;-90
2022/09/26 18:59:52;;;;;;;0.80;0.30;;;12.00;99.90;;;;;;6156422;22;20332;-90
2022/09/26 19:02:22;;;;;;;0.95;0.38;;;12.00;99.90;;;;;;6156384;23;20052;-92
2022/09/26 19:04:49;;;;;;;0.20;0.20;;;12.00;99.90;;;;;;6131379;23;20013;-88
2022/09/26 19:07:16;;;;;;;1.15;0.35;;;11.90;99.90;;;;;;6131012;23;20408;-90
2022/09/26 19:09:57;;;;;;;2.08;0.28;;;11.90;99.90;;;;;;6129474;23;20091;-87
2022/09/26 19:12:23;;;;;;;2.15;0.88;;;11.90;99.90;;;;;;6107211;23;20017;-87
2022/09/26 19:14:48;;;;;;;2.83;0.65;;;11.90;99.90;;;;;;6181845;23;20515;-89
2022/09/26 19:17:14;;;;;;;2.43;0.33;;;11.90;99.90;;;;;;6106675;23;20028;-87
2022/09/26 19:19:42;;;;;;;2.33;0.37;;;11.80;99.90;;;;;;6130513;23;20021;-88
2022/09/26 19:22:16;;;;;;;1.20;0.43;;;11.90;99.90;;;;;;6130554;23;20020;-89
2022/09/26 19:25:08;;;;;;;1.92;0.60;;;11.80;99.90;;;;;;6131321;23;20082;-89
2022/09/26 19:31:54;;;;;;;2.60;0.60;;;11.80;99.90;;;;;;6182340;23;20372;-89
2022/09/26 19:34:51;;;;;;;3.60;0.80;;;11.80;99.90;;;;;;6161982;23;20016;-89
2022/09/26 19:37:16;;;;;;;5.10;1.10;;;11.80;99.90;;;;;;6137507;23;20021;-89
2022/09/26 19:40:11;;;;;;;2.30;0.67;;;11.80;99.90;;;;;;6154090;22;20070;-90